createdAt,value
2022-09-06T00:02:17.589Z,11.98
2022-09-06T00:07:23.222Z,12.04
2022-09-06T00:12:27.443Z,12.06
2022-09-06T00:17:32.720Z,11.95
2022-09-06T00:22:38.632Z,11.83
2022-09-06T00:27:42.759Z,11.94
2022-09-06T00:32:47.115Z,11.82
2022-09-06T00:37:52.853Z,11.75
2022-09-06T00:42:57.659Z,11.81
2022-09-06T00:48:03.528Z,11.75
2022-09-06T00:53:09.238Z,11.62
2022-09-06T00:58:14.096Z,11.43
2022-09-06T01:03:19.247Z,11.48
2022-09-06T01:08:38.219Z,11.53
2022-09-06T01:13:54.182Z,11.58
2022-09-06T01:19:21.334Z,11.58
2022-09-06T01:24:51.990Z,11.45
2022-09-06T01:30:04.167Z,11.33
2022-09-06T01:35:17.208Z,11.29
2022-09-06T01:40:21.302Z,11.12
2022-09-06T01:45:38.746Z,11.17
2022-09-06T01:50:48.988Z,11.16
2022-09-06T01:55:59.643Z,11.24
2022-09-06T02:01:13.237Z,11.20
2022-09-06T02:06:22.617Z,10.96
2022-09-06T02:11:30.714Z,10.95
2022-09-06T02:16:40.471Z,10.88
2022-09-06T02:21:47.626Z,10.81
2022-09-06T02:26:51.873Z,10.79
2022-09-06T02:32:02.998Z,10.58
2022-09-06T02:37:07.759Z,10.52
2022-09-06T02:42:14.468Z,10.33
2022-09-06T02:47:19.988Z,10.26
2022-09-06T02:52:23.993Z,10.27
2022-09-06T02:57:28.037Z,10.10
2022-09-06T03:02:33.401Z,10.20
2022-09-06T03:07:37.470Z,10.12
2022-09-06T03:12:43.164Z,10.00
2022-09-06T03:17:48.519Z,9.94
2022-09-06T03:22:52.811Z,9.96
2022-09-06T03:27:57.790Z,9.92
2022-09-06T03:33:03.323Z,9.92
2022-09-06T03:38:08.061Z,9.83
2022-09-06T03:43:12.026Z,10.04
2022-09-06T03:48:19.104Z,10.23
2022-09-06T03:53:24.119Z,10.14
2022-09-06T03:58:32.107Z,9.91
2022-09-06T04:03:38.350Z,9.89
2022-09-06T04:08:42.458Z,9.82
2022-09-06T04:13:46.725Z,9.83
2022-09-06T04:18:52.098Z,10.01
2022-09-06T04:23:56.189Z,9.95
2022-09-06T04:29:00.161Z,10.13
2022-09-06T04:34:05.668Z,10.32
2022-09-06T04:39:09.672Z,10.46
2022-09-06T04:44:13.672Z,10.81
2022-09-06T04:49:19.026Z,11.06
2022-09-06T04:54:22.998Z,11.32
2022-09-06T04:59:26.953Z,11.76
2022-09-06T05:04:32.322Z,12.05
2022-09-06T05:09:36.906Z,12.38
2022-09-06T05:14:41.036Z,12.67
2022-09-06T05:19:46.438Z,12.80
2022-09-06T05:24:50.384Z,13.07
2022-09-06T05:29:54.479Z,13.15
2022-09-06T05:35:00.033Z,13.45
2022-09-06T05:40:04.764Z,13.69
2022-09-06T05:45:09.418Z,13.80
2022-09-06T05:50:15.545Z,14.25
2022-09-06T05:55:19.491Z,14.72
2022-09-06T06:00:23.715Z,15.19
2022-09-06T06:05:29.316Z,15.68
2022-09-06T06:10:37.897Z,15.91
2022-09-06T06:15:42.494Z,16.45
2022-09-06T06:20:48.115Z,16.61
2022-09-06T06:25:52.078Z,16.86
2022-09-06T06:30:56.104Z,17.45
2022-09-06T06:36:03.465Z,17.97
2022-09-06T06:41:08.841Z,18.17
2022-09-06T06:46:15.080Z,18.24
2022-09-06T06:51:21.601Z,18.65
2022-09-06T06:56:27.685Z,18.77
2022-09-06T07:01:33.763Z,18.82
2022-09-06T07:12:15.552Z,18.83
2022-09-06T07:17:19.529Z,19.98
2022-09-06T07:22:25.034Z,19.76
2022-09-06T07:32:52.969Z,20.07
2022-09-06T07:37:59.532Z,20.61
2022-09-06T07:43:09.863Z,20.12
2022-09-06T07:48:13.734Z,20.37
2022-09-06T07:53:29.032Z,20.70
2022-09-06T07:58:35.029Z,21.10
2022-09-06T08:03:39.146Z,20.72
2022-09-06T08:09:00.359Z,21.00
2022-09-06T08:14:07.352Z,21.53
2022-09-06T08:19:12.510Z,21.94
2022-09-06T08:24:18.613Z,22.43
2022-09-06T08:29:22.900Z,22.39
2022-09-06T08:34:27.021Z,22.33
2022-09-06T08:39:36.131Z,23.77
2022-09-06T08:44:59.229Z,22.41
2022-09-06T08:50:06.808Z,24.08
2022-09-06T08:55:32.423Z,23.52
2022-09-06T09:00:38.626Z,25.30
2022-09-06T09:05:45.080Z,22.95
2022-09-06T09:10:55.991Z,21.73
2022-09-06T09:16:00.581Z,21.20
2022-09-06T09:21:05.558Z,20.98
2022-09-06T09:26:15.357Z,20.75
2022-09-06T09:31:35.129Z,21.02
2022-09-06T09:36:40.059Z,21.03
2022-09-06T09:41:45.553Z,21.40
2022-09-06T09:46:49.685Z,24.55
2022-09-06T09:52:08.327Z,26.12
2022-09-06T09:57:18.800Z,24.10
2022-09-06T10:02:26.809Z,24.75
2022-09-06T10:07:32.580Z,26.77
2022-09-06T10:12:40.071Z,27.99
2022-09-06T10:17:51.291Z,25.32
2022-09-06T10:23:04.417Z,23.48
2022-09-06T10:28:31.509Z,23.11
2022-09-06T10:33:43.948Z,23.00
2022-09-06T10:38:55.295Z,22.63
2022-09-06T10:44:09.442Z,22.05
2022-09-06T10:49:19.199Z,21.75
2022-09-06T10:54:24.737Z,21.52
2022-09-06T10:59:36.514Z,21.89
2022-09-06T11:10:16.133Z,24.13
2022-09-06T11:15:24.076Z,25.59
2022-09-06T11:20:34.782Z,25.25
2022-09-06T11:26:13.589Z,26.42
2022-09-06T11:36:51.203Z,22.85
2022-09-06T11:41:57.171Z,22.01
2022-09-06T11:47:07.670Z,21.11
2022-09-06T11:52:59.320Z,21.28
2022-09-06T11:58:07.049Z,21.14
2022-09-06T12:04:06.779Z,20.91
2022-09-06T12:09:45.696Z,20.99
2022-09-06T12:14:49.715Z,21.14
2022-09-06T12:19:56.238Z,21.64
2022-09-06T12:25:02.812Z,22.12
2022-09-06T12:30:09.367Z,24.18
2022-09-06T12:40:48.233Z,22.17
2022-09-06T12:45:53.939Z,21.69
2022-09-06T12:51:05.578Z,21.21
2022-09-06T12:56:13.345Z,21.00
2022-09-06T13:01:25.288Z,20.65
2022-09-06T13:06:31.969Z,20.72
2022-09-06T13:11:41.839Z,21.03
2022-09-06T13:16:48.608Z,21.75
2022-09-06T13:21:52.728Z,21.87
2022-09-06T13:26:57.999Z,22.32
2022-09-06T13:32:05.757Z,21.85
2022-09-06T13:37:11.895Z,21.12
2022-09-06T13:42:28.663Z,20.98
2022-09-06T13:47:32.659Z,20.96
2022-09-06T13:52:36.582Z,20.65
2022-09-06T13:57:41.942Z,20.62
2022-09-06T14:02:46.743Z,20.77
2022-09-06T14:07:50.775Z,21.07
2022-09-06T14:12:56.216Z,21.01
2022-09-06T14:18:00.326Z,21.02
2022-09-06T14:23:04.619Z,21.04
2022-09-06T14:28:10.086Z,21.11
2022-09-06T14:33:14.180Z,21.03
2022-09-06T14:38:18.224Z,21.08
2022-09-06T14:43:23.671Z,20.65
2022-09-06T14:48:30.397Z,20.57
2022-09-06T14:53:40.318Z,20.50
2022-09-06T14:58:46.948Z,20.25
2022-09-06T15:03:53.882Z,19.92
2022-09-06T15:08:59.656Z,19.75
2022-09-06T15:14:09.045Z,19.64
2022-09-06T15:19:13.288Z,19.47
2022-09-06T15:24:17.688Z,19.46
2022-09-06T15:29:23.595Z,19.38
2022-09-06T15:34:28.445Z,19.18
2022-09-06T15:39:32.651Z,19.21
2022-09-06T15:44:39.244Z,19.05
2022-09-06T15:49:44.188Z,18.94
2022-09-06T15:55:05.888Z,18.83
2022-09-06T16:00:13.520Z,18.68
2022-09-06T16:05:18.133Z,18.53
2022-09-06T16:10:22.456Z,18.34
2022-09-06T16:15:28.066Z,18.29
2022-09-06T16:20:33.795Z,18.10
2022-09-06T16:25:38.114Z,17.82
2022-09-06T16:30:44.610Z,17.62
2022-09-06T16:35:49.018Z,17.39
2022-09-06T16:40:53.219Z,17.10
2022-09-06T16:46:00.800Z,16.89
2022-09-06T16:51:13.045Z,16.82
2022-09-06T16:56:19.446Z,16.67
2022-09-06T17:01:25.993Z,16.50
2022-09-06T17:06:31.029Z,16.33
2022-09-06T17:11:37.332Z,16.13
2022-09-06T17:17:00.238Z,16.08
2022-09-06T17:22:05.036Z,16.01
2022-09-06T17:27:09.766Z,15.85
2022-09-06T17:32:15.719Z,15.83
2022-09-06T17:37:20.203Z,15.65
2022-09-06T17:42:25.102Z,15.53
2022-09-06T17:47:31.190Z,15.41
2022-09-06T17:52:37.302Z,15.43
2022-09-06T17:57:41.846Z,15.15
2022-09-06T18:02:47.854Z,15.11
2022-09-06T18:07:52.506Z,15.18
2022-09-06T18:12:56.897Z,15.15
2022-09-06T18:18:02.586Z,15.10
2022-09-06T18:23:06.715Z,14.93
2022-09-06T18:28:10.876Z,14.84
2022-09-06T18:33:16.843Z,14.65
2022-09-06T18:38:20.910Z,14.51
2022-09-06T18:43:30.015Z,14.39
2022-09-06T18:48:36.941Z,14.38
2022-09-06T18:53:44.790Z,14.40
2022-09-06T18:58:49.351Z,14.38
2022-09-06T19:03:55.600Z,14.21
2022-09-06T19:09:00.506Z,14.16
2022-09-06T19:14:05.584Z,14.12
2022-09-06T19:19:12.167Z,14.18
2022-09-06T19:24:16.575Z,14.07
2022-09-06T19:29:21.335Z,14.08
2022-09-06T19:34:27.359Z,14.13
2022-09-06T19:39:36.853Z,14.11
2022-09-06T19:44:43.014Z,13.98
2022-09-06T19:49:49.709Z,13.85
2022-09-06T19:54:54.237Z,13.81
2022-09-06T19:59:58.788Z,13.84
2022-09-06T20:05:04.438Z,14.00
2022-09-06T20:10:09.153Z,14.06
2022-09-06T20:15:14.715Z,14.23
2022-09-06T20:20:20.507Z,14.16
2022-09-06T20:25:24.576Z,14.01
2022-09-06T20:30:30.272Z,13.99
2022-09-06T20:35:36.133Z,14.10
2022-09-06T20:40:40.935Z,14.09
2022-09-06T20:45:46.969Z,14.09
2022-09-06T20:50:59.697Z,14.10
2022-09-06T20:56:05.640Z,14.17
2022-09-06T21:01:11.840Z,14.32
2022-09-06T21:06:18.049Z,14.37
2022-09-06T21:11:22.409Z,14.36
2022-09-06T21:16:29.598Z,14.45
2022-09-06T21:21:36.420Z,14.28
2022-09-06T21:26:40.999Z,14.06
2022-09-06T21:31:45.335Z,14.10
2022-09-06T21:36:50.999Z,13.93
2022-09-06T21:41:55.370Z,13.81
2022-09-06T21:46:59.635Z,13.76
2022-09-06T21:52:05.783Z,13.91
2022-09-06T21:57:10.405Z,14.19
2022-09-06T22:02:15.546Z,14.30
2022-09-06T22:07:22.530Z,14.29
2022-09-06T22:12:26.737Z,14.20
2022-09-06T22:17:30.804Z,14.08
2022-09-06T22:22:36.597Z,14.11
2022-09-06T22:27:40.889Z,14.04
2022-09-06T22:32:44.985Z,14.10
2022-09-06T22:37:50.774Z,13.95
2022-09-06T22:42:54.856Z,13.85
2022-09-06T22:47:59.000Z,13.73
2022-09-06T22:53:04.803Z,13.51
2022-09-06T22:58:08.852Z,13.29
2022-09-06T23:03:13.037Z,13.17
2022-09-06T23:08:18.747Z,13.09
2022-09-06T23:13:22.845Z,13.04
2022-09-06T23:18:27.157Z,13.00
2022-09-06T23:23:32.901Z,12.88
2022-09-06T23:28:37.911Z,12.70
2022-09-06T23:33:42.904Z,12.59
2022-09-06T23:38:48.821Z,12.65
2022-09-06T23:43:52.856Z,12.59
2022-09-06T23:49:00.079Z,12.72
2022-09-06T23:54:05.773Z,12.49
2022-09-06T23:59:10.075Z,12.56
